createdAt,value
2022-11-20T00:02:43.425Z,20.87
2022-11-20T00:05:47.293Z,21.07
2022-11-20T00:08:57.079Z,19.50
2022-11-20T00:12:00.846Z,26.03
2022-11-20T00:15:04.791Z,23.93
2022-11-20T00:18:08.518Z,20.83
2022-11-20T00:21:16.225Z,17.83
2022-11-20T00:24:21.282Z,22.43
2022-11-20T00:27:24.881Z,20.50
2022-11-20T00:30:28.465Z,21.97
2022-11-20T00:33:32.513Z,22.17
2022-11-20T00:36:37.057Z,23.73
2022-11-20T00:39:42.117Z,17.17
2022-11-20T00:42:45.720Z,20.57
2022-11-20T00:45:49.330Z,18.50
2022-11-20T00:48:53.011Z,21.17
2022-11-20T00:51:56.569Z,20.67
2022-11-20T00:55:01.520Z,20.93
2022-11-20T00:58:06.413Z,26.80
2022-11-20T01:01:15.877Z,17.40
2022-11-20T01:04:19.455Z,21.13
2022-11-20T01:07:23.162Z,18.07
2022-11-20T01:10:28.209Z,18.27
2022-11-20T01:13:42.210Z,18.50
2022-11-20T01:16:49.313Z,16.10
2022-11-20T01:19:52.924Z,18.47
2022-11-20T01:22:56.533Z,16.97
2022-11-20T01:26:03.574Z,19.63
2022-11-20T01:29:09.369Z,18.83
2022-11-20T01:32:12.878Z,19.20
2022-11-20T01:35:16.685Z,21.37
2022-11-20T01:38:21.074Z,20.33
2022-11-20T01:41:44.466Z,20.87
2022-11-20T01:44:56.406Z,19.87
2022-11-20T01:48:00.214Z,21.33
2022-11-20T01:51:06.123Z,22.43
2022-11-20T01:54:16.021Z,17.90
2022-11-20T01:57:22.668Z,19.87
2022-11-20T02:00:26.841Z,18.47
2022-11-20T02:03:30.690Z,19.90
2022-11-20T02:06:41.051Z,19.97
2022-11-20T02:09:44.704Z,18.70
2022-11-20T02:13:08.007Z,24.20
2022-11-20T02:16:17.439Z,23.17
2022-11-20T02:19:28.961Z,21.07
2022-11-20T02:22:42.950Z,26.10
2022-11-20T02:25:49.559Z,21.33
2022-11-20T02:28:53.846Z,24.13
2022-11-20T02:32:00.964Z,22.33
2022-11-20T02:35:10.985Z,22.23
2022-11-20T02:38:15.908Z,21.03
2022-11-20T02:41:21.103Z,24.07
2022-11-20T02:44:24.728Z,27.03
2022-11-20T02:47:28.279Z,23.37
2022-11-20T02:50:32.137Z,26.77
2022-11-20T02:53:35.710Z,27.33
2022-11-20T02:56:42.167Z,20.03
2022-11-20T02:59:45.777Z,24.63
2022-11-20T03:02:49.413Z,23.03
2022-11-20T03:05:53.100Z,23.57
2022-11-20T03:08:57.047Z,19.60
2022-11-20T03:12:02.069Z,21.97
2022-11-20T03:15:07.178Z,20.20
2022-11-20T03:18:11.214Z,19.77
2022-11-20T03:21:17.630Z,20.37
2022-11-20T03:24:21.384Z,22.03
2022-11-20T03:27:26.536Z,19.70
2022-11-20T03:30:30.957Z,21.23
2022-11-20T03:33:34.875Z,19.03
2022-11-20T03:36:41.175Z,21.43
2022-11-20T03:39:45.821Z,23.30
2022-11-20T03:42:50.739Z,22.83
2022-11-20T03:45:54.373Z,20.50
2022-11-20T03:48:58.686Z,18.87
2022-11-20T03:52:02.381Z,20.93
2022-11-20T03:55:06.978Z,19.10
2022-11-20T03:58:12.594Z,18.07
2022-11-20T04:01:19.294Z,20.90
2022-11-20T04:04:22.942Z,17.23
2022-11-20T04:07:26.531Z,22.07
2022-11-20T04:10:30.161Z,20.07
2022-11-20T04:13:35.130Z,16.57
2022-11-20T04:16:39.074Z,18.40
2022-11-20T04:19:42.642Z,17.60
2022-11-20T04:22:46.267Z,21.27
2022-11-20T04:25:49.831Z,15.67
2022-11-20T04:28:55.279Z,17.73
2022-11-20T04:31:58.836Z,20.03
2022-11-20T04:35:02.365Z,15.47
2022-11-20T04:38:06.487Z,18.60
2022-11-20T04:41:19.805Z,20.27
2022-11-20T04:44:24.698Z,18.17
2022-11-20T04:47:28.332Z,16.10
2022-11-20T04:50:31.884Z,17.07
2022-11-20T04:53:35.721Z,16.43
2022-11-20T04:56:39.303Z,15.77
2022-11-20T04:59:44.669Z,15.30
2022-11-20T05:02:48.489Z,16.87
2022-11-20T05:05:52.151Z,16.20
2022-11-20T05:08:55.714Z,13.57
2022-11-20T05:11:59.330Z,14.33
2022-11-20T05:15:04.448Z,16.10
2022-11-20T05:18:08.370Z,12.23
2022-11-20T05:21:14.708Z,13.70
2022-11-20T05:24:18.264Z,16.40
2022-11-20T05:27:22.117Z,14.87
2022-11-20T05:30:27.145Z,14.00
2022-11-20T05:33:30.742Z,13.00
2022-11-20T05:36:34.885Z,14.77
2022-11-20T05:39:38.435Z,12.50
2022-11-20T05:42:44.698Z,13.47
2022-11-20T05:45:56.473Z,13.20
2022-11-20T05:49:00.376Z,11.30
2022-11-20T05:52:03.973Z,12.37
2022-11-20T05:55:08.914Z,13.70
2022-11-20T05:58:14.113Z,12.93
2022-11-20T06:01:22.078Z,23.40
2022-11-20T06:04:26.095Z,12.77
2022-11-20T06:07:29.923Z,15.87
2022-11-20T06:10:33.474Z,12.27
2022-11-20T06:13:41.767Z,16.40
2022-11-20T06:16:47.455Z,17.63
2022-11-20T06:19:51.063Z,15.50
2022-11-20T06:22:54.651Z,14.97
2022-11-20T06:25:58.254Z,13.43
2022-11-20T06:29:01.950Z,14.27
2022-11-20T06:32:07.539Z,12.40
2022-11-20T06:35:12.097Z,11.77
2022-11-20T06:38:15.748Z,16.73
2022-11-20T06:41:22.234Z,15.07
2022-11-20T06:44:25.820Z,12.43
2022-11-20T06:47:30.815Z,14.30
2022-11-20T06:50:34.400Z,13.13
2022-11-20T06:53:39.412Z,12.83
2022-11-20T06:56:43.059Z,14.17
2022-11-20T06:59:46.744Z,12.47
2022-11-20T07:02:52.006Z,12.93
2022-11-20T07:05:58.240Z,10.60
2022-11-20T07:09:02.748Z,11.27
2022-11-20T07:12:07.279Z,10.47
2022-11-20T07:15:11.287Z,14.50
2022-11-20T07:18:16.471Z,13.53
2022-11-20T07:21:20.118Z,15.23
2022-11-20T07:24:23.742Z,13.30
2022-11-20T07:27:27.347Z,12.43
2022-11-20T07:30:32.205Z,14.60
2022-11-20T07:33:37.517Z,14.27
2022-11-20T07:36:41.719Z,12.87
2022-11-20T07:39:46.363Z,15.57
2022-11-20T07:42:51.258Z,13.63
2022-11-20T07:45:57.313Z,17.93
2022-11-20T07:49:02.303Z,14.03
2022-11-20T07:52:06.142Z,14.97
2022-11-20T07:55:12.300Z,16.77
2022-11-20T07:58:16.065Z,16.97
2022-11-20T08:01:19.801Z,12.80
2022-11-20T08:04:24.795Z,14.87
2022-11-20T08:07:28.436Z,14.00
2022-11-20T08:10:32.071Z,14.50
2022-11-20T08:13:55.075Z,14.40
2022-11-20T08:16:58.702Z,14.17
2022-11-20T08:20:03.721Z,12.20
2022-11-20T08:23:09.086Z,13.67
2022-11-20T08:26:13.033Z,13.87
2022-11-20T08:29:16.830Z,12.10
2022-11-20T08:32:20.517Z,13.00
2022-11-20T08:35:25.854Z,13.67
2022-11-20T08:38:29.627Z,12.07
2022-11-20T08:41:34.351Z,13.70
2022-11-20T08:44:38.119Z,14.83
2022-11-20T08:47:41.759Z,11.10
2022-11-20T08:50:46.896Z,13.43
2022-11-20T08:53:51.110Z,14.30
2022-11-20T08:56:55.250Z,13.20
2022-11-20T09:00:06.189Z,11.90
2022-11-20T09:03:11.081Z,12.70
2022-11-20T09:06:16.598Z,13.13
2022-11-20T09:09:20.749Z,17.67
2022-11-20T09:12:24.850Z,12.77
2022-11-20T09:15:37.638Z,14.63
2022-11-20T09:18:41.424Z,15.13
2022-11-20T09:21:46.621Z,14.97
2022-11-20T09:24:50.472Z,15.13
2022-11-20T09:27:58.552Z,14.80
2022-11-20T09:31:02.978Z,14.63
2022-11-20T09:34:06.805Z,13.97
2022-11-20T09:37:11.771Z,16.23
2022-11-20T09:40:23.838Z,14.57
2022-11-20T09:43:58.266Z,15.07
2022-11-20T09:47:10.857Z,17.67
2022-11-20T09:50:33.646Z,17.70
2022-11-20T09:54:00.457Z,15.40
2022-11-20T09:57:12.434Z,17.17
2022-11-20T10:00:18.704Z,15.53
2022-11-20T10:03:42.881Z,15.23
2022-11-20T10:07:30.149Z,15.70
2022-11-20T10:10:43.465Z,19.37
2022-11-20T10:14:06.941Z,17.60
2022-11-20T10:17:22.032Z,17.37
2022-11-20T10:20:36.814Z,16.87
2022-11-20T10:24:26.965Z,18.27
2022-11-20T10:27:58.455Z,17.70
2022-11-20T10:31:07.154Z,19.40
2022-11-20T10:34:25.670Z,18.00
2022-11-20T10:37:33.286Z,20.80
2022-11-20T10:40:43.042Z,20.33
2022-11-20T10:43:51.639Z,19.90
2022-11-20T10:46:55.220Z,22.13
2022-11-20T10:50:06.010Z,22.43
2022-11-20T10:53:28.556Z,23.00
2022-11-20T10:56:46.889Z,21.03
2022-11-20T11:00:05.755Z,21.57
2022-11-20T11:03:27.382Z,23.83
2022-11-20T11:06:39.891Z,22.83
2022-11-20T11:09:49.657Z,21.97
2022-11-20T11:12:53.379Z,23.87
2022-11-20T11:16:00.706Z,28.73
2022-11-20T11:19:09.163Z,25.90
2022-11-20T11:22:20.210Z,28.77
2022-11-20T11:25:31.507Z,24.47
2022-11-20T11:28:36.286Z,25.63
2022-11-20T11:31:41.409Z,29.60
2022-11-20T11:34:45.102Z,26.33
2022-11-20T11:37:49.963Z,24.20
2022-11-20T11:40:58.401Z,22.37
2022-11-20T11:44:36.069Z,21.00
2022-11-20T11:47:49.514Z,20.77
2022-11-20T11:50:54.982Z,18.67
2022-11-20T11:54:01.584Z,25.10
2022-11-20T11:57:17.596Z,26.30
2022-11-20T12:00:23.821Z,29.97
2022-11-20T12:03:37.886Z,26.97
2022-11-20T12:06:47.474Z,27.83
2022-11-20T12:09:56.746Z,29.83
2022-11-20T12:13:10.517Z,33.77
2022-11-20T12:16:20.132Z,26.87
2022-11-20T12:19:25.742Z,25.73
2022-11-20T12:22:43.443Z,29.77
2022-11-20T12:25:56.558Z,39.37
2022-11-20T12:29:16.353Z,40.93
2022-11-20T12:32:59.690Z,36.63
2022-11-20T12:36:22.743Z,36.80
2022-11-20T12:39:40.574Z,35.50
2022-11-20T12:43:24.039Z,38.33
2022-11-20T12:46:43.699Z,33.43
2022-11-20T12:50:03.012Z,30.27
2022-11-20T12:53:21.921Z,29.03
2022-11-20T12:56:44.079Z,25.00
2022-11-20T13:00:12.330Z,22.10
2022-11-20T13:03:41.282Z,16.83
2022-11-20T13:06:46.909Z,20.57
2022-11-20T13:09:53.700Z,14.40
2022-11-20T13:13:06.010Z,16.07
2022-11-20T13:16:18.698Z,16.43
2022-11-20T13:19:23.555Z,17.40
2022-11-20T13:22:28.679Z,16.73
2022-11-20T13:25:36.012Z,15.50
2022-11-20T13:28:41.018Z,17.67
2022-11-20T13:31:48.334Z,16.73
2022-11-20T13:34:56.356Z,15.90
2022-11-20T13:38:08.257Z,16.43
2022-11-20T13:41:32.526Z,13.00
2022-11-20T13:44:44.994Z,14.73
2022-11-20T13:47:52.204Z,15.73
2022-11-20T13:51:33.117Z,17.60
2022-11-20T13:55:00.061Z,15.73
2022-11-20T13:58:38.440Z,12.90
2022-11-20T14:01:45.612Z,15.17
2022-11-20T14:04:54.034Z,13.70
2022-11-20T14:07:59.279Z,14.57
2022-11-20T14:11:18.747Z,13.27
2022-11-20T14:14:26.360Z,12.50
2022-11-20T14:17:35.536Z,12.90
2022-11-20T14:20:41.852Z,13.10
2022-11-20T14:23:46.002Z,18.47
2022-11-20T14:26:53.474Z,19.73
2022-11-20T14:29:58.483Z,15.83
2022-11-20T14:33:05.903Z,15.63
2022-11-20T14:36:22.073Z,15.10
2022-11-20T14:39:32.974Z,16.53
2022-11-20T14:42:38.395Z,15.90
2022-11-20T14:45:43.786Z,14.00
2022-11-20T14:48:53.303Z,12.10
2022-11-20T14:52:03.531Z,13.00
2022-11-20T14:55:08.100Z,11.90
2022-11-20T14:58:25.774Z,12.37
2022-11-20T15:01:34.096Z,13.40
2022-11-20T15:04:48.878Z,16.43
2022-11-20T15:08:11.687Z,15.47
2022-11-20T15:11:24.337Z,13.17
2022-11-20T15:14:38.493Z,16.23
2022-11-20T15:17:43.970Z,16.60
2022-11-20T15:20:51.098Z,19.63
2022-11-20T15:24:00.450Z,15.07
2022-11-20T15:27:04.199Z,15.80
2022-11-20T15:30:17.922Z,16.33
2022-11-20T15:33:22.993Z,15.33
2022-11-20T15:36:26.798Z,18.17
2022-11-20T15:39:30.507Z,18.30
2022-11-20T15:42:34.271Z,16.93
2022-11-20T15:45:42.884Z,18.97
2022-11-20T15:48:54.365Z,18.23
2022-11-20T15:51:57.963Z,14.97
2022-11-20T15:55:04.246Z,17.70
2022-11-20T15:58:12.015Z,20.47
2022-11-20T16:01:18.549Z,22.30
2022-11-20T16:04:23.876Z,23.77
2022-11-20T16:07:27.790Z,29.23
2022-11-20T16:10:31.703Z,24.77
2022-11-20T16:13:52.505Z,22.80
2022-11-20T16:16:56.259Z,20.47
2022-11-20T16:20:01.248Z,25.20
2022-11-20T16:23:05.189Z,25.67
2022-11-20T16:26:13.249Z,26.57
2022-11-20T16:29:17.205Z,24.70
2022-11-20T16:32:20.826Z,25.13
2022-11-20T16:35:28.166Z,23.90
2022-11-20T16:38:31.705Z,19.90
2022-11-20T16:41:37.287Z,23.63
2022-11-20T16:44:41.352Z,19.53
2022-11-20T16:47:45.198Z,24.00
2022-11-20T16:50:53.240Z,23.20
2022-11-20T16:53:58.580Z,24.47
2022-11-20T16:57:02.194Z,32.73
2022-11-20T17:00:06.971Z,41.17
2022-11-20T17:03:10.838Z,28.30
2022-11-20T17:06:18.785Z,42.50
2022-11-20T17:09:22.450Z,32.53
2022-11-20T17:12:26.101Z,25.97
2022-11-20T17:15:38.722Z,29.07
2022-11-20T17:18:43.034Z,26.53
2022-11-20T17:21:48.090Z,37.47
2022-11-20T17:24:52.040Z,32.28
2022-11-20T17:27:56.457Z,25.90
2022-11-20T17:31:03.990Z,31.60
2022-11-20T17:34:09.461Z,35.83
2022-11-20T17:37:14.738Z,40.43
2022-11-20T17:40:20.923Z,41.00
2022-11-20T17:43:32.902Z,53.93
2022-11-20T17:46:49.851Z,81.80
2022-11-20T17:49:55.083Z,65.90
2022-11-20T17:53:00.113Z,101.93
2022-11-20T17:56:21.361Z,75.73
2022-11-20T17:59:24.930Z,83.10
2022-11-20T18:02:44.688Z,41.53
2022-11-20T18:05:48.304Z,35.20
2022-11-20T18:08:53.488Z,61.00
2022-11-20T18:11:57.236Z,58.37
2022-11-20T18:15:00.957Z,69.47
2022-11-20T18:18:04.726Z,34.50
2022-11-20T18:21:16.715Z,44.37
2022-11-20T18:24:22.489Z,44.93
2022-11-20T18:27:26.195Z,25.10
2022-11-20T18:30:29.858Z,25.00
2022-11-20T18:33:34.422Z,28.63
2022-11-20T18:36:38.145Z,43.63
2022-11-20T18:39:43.705Z,47.13
2022-11-20T18:43:04.418Z,41.23
2022-11-20T18:46:08.242Z,68.73
2022-11-20T18:49:13.338Z,40.23
2022-11-20T18:52:16.969Z,29.23
2022-11-20T18:55:26.933Z,58.70
2022-11-20T18:58:30.930Z,124.47
2022-11-20T19:01:35.433Z,157.33
2022-11-20T19:04:39.524Z,51.50
2022-11-20T19:07:44.185Z,55.53
2022-11-20T19:10:51.692Z,61.33
2022-11-20T19:13:55.329Z,62.13
2022-11-20T19:16:58.962Z,59.87
2022-11-20T19:20:02.607Z,29.03
2022-11-20T19:23:06.209Z,38.50
2022-11-20T19:26:11.574Z,81.00
2022-11-20T19:29:17.350Z,40.17
2022-11-20T19:32:20.963Z,37.37
2022-11-20T19:35:24.541Z,37.57
2022-11-20T19:38:28.150Z,27.53
2022-11-20T19:41:35.051Z,27.53
2022-11-20T19:44:38.762Z,40.53
2022-11-20T19:51:11.393Z,29.70
2022-11-20T19:54:15.657Z,29.37
2022-11-20T19:57:20.908Z,31.23
2022-11-20T20:00:31.254Z,36.07
2022-11-20T20:03:36.434Z,31.40
2022-11-20T20:06:40.618Z,32.07
2022-11-20T20:09:44.406Z,33.50
2022-11-20T20:12:57.904Z,33.43
2022-11-20T20:16:03.533Z,33.27
2022-11-20T20:19:07.655Z,27.33
2022-11-20T20:22:11.327Z,24.70
2022-11-20T20:25:14.994Z,28.23
2022-11-20T20:28:19.966Z,28.20
2022-11-20T20:31:26.050Z,29.10
2022-11-20T20:34:32.610Z,25.87
2022-11-20T20:37:36.316Z,29.03
2022-11-20T20:40:40.204Z,28.90
2022-11-20T20:44:07.953Z,31.23
2022-11-20T20:47:11.598Z,25.77
2022-11-20T20:50:15.449Z,25.97
2022-11-20T20:53:19.424Z,22.83
2022-11-20T20:56:23.502Z,24.57
2022-11-20T20:59:28.630Z,22.90
2022-11-20T21:02:32.242Z,25.83
2022-11-20T21:05:41.091Z,25.63
2022-11-20T21:08:47.718Z,22.83
2022-11-20T21:11:51.639Z,23.73
2022-11-20T21:14:56.619Z,24.67
2022-11-20T21:18:00.338Z,24.50
2022-11-20T21:21:23.961Z,23.40
2022-11-20T21:24:29.068Z,24.73
2022-11-20T21:27:32.691Z,24.73
2022-11-20T21:31:05.405Z,25.63
2022-11-20T21:34:23.698Z,27.33
2022-11-20T21:41:55.619Z,28.27
2022-11-20T21:45:24.756Z,28.53
2022-11-20T21:49:02.320Z,25.00
2022-11-20T21:56:20.594Z,28.63
2022-11-20T22:00:02.872Z,25.47
2022-11-20T22:03:41.470Z,26.63
2022-11-20T22:07:31.827Z,26.37
2022-11-20T22:11:08.309Z,28.90
2022-11-20T22:14:40.165Z,26.83
2022-11-20T22:18:19.560Z,30.90
2022-11-20T22:21:44.776Z,26.70
2022-11-20T22:25:35.785Z,30.67
2022-11-20T22:28:50.087Z,41.30
2022-11-20T22:32:23.070Z,36.10
2022-11-20T22:35:41.826Z,29.67
2022-11-20T22:38:59.614Z,28.03
2022-11-20T22:42:23.357Z,27.93
2022-11-20T22:45:37.874Z,40.70
2022-11-20T22:48:58.884Z,26.27
2022-11-20T22:52:10.919Z,29.77
2022-11-20T22:55:32.528Z,28.13
2022-11-20T22:58:54.170Z,26.77
2022-11-20T23:02:12.313Z,23.67
2022-11-20T23:05:38.729Z,26.93
2022-11-20T23:09:16.741Z,25.70
2022-11-20T23:12:41.302Z,24.77
2022-11-20T23:16:09.117Z,26.10
2022-11-20T23:19:48.220Z,27.03
2022-11-20T23:23:08.750Z,28.17
2022-11-20T23:27:06.730Z,26.27
2022-11-20T23:30:43.513Z,25.87
2022-11-20T23:34:28.524Z,24.40
2022-11-20T23:38:12.359Z,25.73
2022-11-20T23:42:00.266Z,25.20
2022-11-20T23:45:34.396Z,23.83
2022-11-20T23:49:19.786Z,28.37
2022-11-20T23:53:09.779Z,23.73
2022-11-20T23:56:37.453Z,26.90
